createdAt,value
2019-05-02T00:01:49.108Z,36.53
2019-05-02T00:04:21.038Z,35.07
2019-05-02T00:07:09.163Z,34.20
2019-05-02T00:09:47.501Z,36.30
2019-05-02T00:12:18.754Z,35.50
2019-05-02T00:14:49.184Z,36.13
2019-05-02T00:17:20.452Z,34.20
2019-05-02T00:19:53.051Z,35.57
2019-05-02T00:22:24.113Z,36.20
2019-05-02T00:24:55.014Z,34.00
2019-05-02T00:27:25.172Z,35.93
2019-05-02T00:29:58.772Z,34.13
2019-05-02T00:32:27.698Z,34.93
2019-05-02T00:34:57.965Z,35.87
2019-05-02T00:37:28.097Z,33.60
2019-05-02T00:39:57.630Z,33.87
2019-05-02T00:42:27.173Z,32.80
2019-05-02T00:45:04.777Z,33.23
2019-05-02T00:47:35.957Z,34.43
2019-05-02T00:50:11.264Z,33.93
2019-05-02T00:52:42.293Z,33.53
2019-05-02T00:55:12.161Z,31.53
2019-05-02T00:57:41.847Z,31.83
2019-05-02T01:00:17.802Z,33.17
2019-05-02T01:02:46.052Z,31.93
2019-05-02T01:05:18.516Z,32.60
2019-05-02T01:07:48.165Z,32.80
2019-05-02T01:10:21.330Z,31.67
2019-05-02T01:12:49.296Z,33.87
2019-05-02T01:15:18.966Z,32.97
2019-05-02T01:17:48.511Z,33.47
2019-05-02T01:20:22.329Z,32.67
2019-05-02T01:22:52.233Z,32.30
2019-05-02T01:25:20.770Z,32.77
2019-05-02T01:28:12.790Z,32.20
2019-05-02T01:30:50.183Z,33.90
2019-05-02T01:33:24.022Z,32.47
2019-05-02T01:36:06.238Z,31.83
2019-05-02T01:38:42.753Z,33.37
2019-05-02T01:41:12.499Z,32.50
2019-05-02T01:43:42.047Z,32.40
2019-05-02T01:46:11.873Z,32.87
2019-05-02T01:48:45.770Z,31.47
2019-05-02T01:51:13.719Z,31.83
2019-05-02T01:53:43.435Z,32.60
2019-05-02T01:56:12.979Z,34.03
2019-05-02T01:58:42.535Z,31.30
2019-05-02T02:01:16.212Z,31.77
2019-05-02T02:03:45.542Z,30.43
2019-05-02T02:06:15.924Z,30.77
2019-05-02T02:08:45.511Z,31.13
2019-05-02T02:11:15.122Z,31.10
2019-05-02T02:13:44.655Z,30.50
2019-05-02T02:16:14.203Z,31.83
2019-05-02T02:18:45.911Z,31.00
2019-05-02T02:21:25.643Z,32.23
2019-05-02T02:24:08.068Z,30.60
2019-05-02T02:26:37.782Z,30.03
2019-05-02T02:29:09.668Z,31.57
2019-05-02T02:31:46.007Z,31.40
2019-05-02T02:34:11.125Z,31.17
2019-05-02T02:36:40.695Z,30.77
2019-05-02T02:39:14.564Z,30.83
2019-05-02T02:41:45.192Z,29.60
2019-05-02T02:44:20.887Z,32.17
2019-05-02T02:46:52.080Z,29.80
2019-05-02T02:49:24.344Z,31.10
2019-05-02T02:51:58.171Z,29.63
2019-05-02T02:54:24.837Z,29.57
2019-05-02T02:56:54.409Z,31.17
2019-05-02T02:59:26.125Z,29.80
2019-05-02T03:01:55.596Z,29.90
2019-05-02T03:04:25.147Z,30.23
2019-05-02T03:06:54.961Z,30.03
2019-05-02T03:09:26.499Z,29.77
2019-05-02T03:12:14.507Z,29.03
2019-05-02T03:14:47.169Z,28.63
2019-05-02T03:17:20.354Z,28.40
2019-05-02T03:19:48.544Z,30.40
2019-05-02T03:22:18.162Z,28.03
2019-05-02T03:24:48.662Z,29.70
2019-05-02T03:27:18.221Z,29.13
2019-05-02T03:29:47.777Z,28.53
2019-05-02T03:32:32.009Z,28.70
2019-05-02T03:34:53.515Z,29.63
2019-05-02T03:37:20.966Z,28.27
2019-05-02T03:39:57.551Z,30.37
2019-05-02T03:42:22.589Z,28.63
2019-05-02T03:44:56.961Z,29.50
2019-05-02T03:47:23.790Z,29.17
2019-05-02T03:49:53.615Z,29.17
2019-05-02T03:52:23.764Z,28.77
2019-05-02T03:54:53.409Z,28.60
2019-05-02T03:57:31.989Z,28.23
2019-05-02T03:59:54.392Z,29.93
2019-05-02T04:02:25.068Z,29.63
2019-05-02T04:05:00.317Z,28.93
2019-05-02T04:07:25.902Z,29.80
2019-05-02T04:09:56.482Z,29.37
2019-05-02T04:12:26.491Z,27.67
2019-05-02T04:14:57.406Z,29.47
2019-05-02T04:17:29.039Z,27.50
2019-05-02T04:20:00.578Z,27.67
2019-05-02T04:22:30.631Z,27.47
2019-05-02T04:25:01.658Z,29.07
2019-05-02T04:27:34.184Z,28.17
2019-05-02T04:30:10.976Z,28.43
2019-05-02T04:32:34.129Z,29.23
2019-05-02T04:35:04.525Z,27.27
2019-05-02T04:37:40.119Z,28.07
2019-05-02T04:40:11.964Z,27.70
2019-05-02T04:42:39.511Z,28.00
2019-05-02T04:45:24.064Z,26.27
2019-05-02T04:47:42.514Z,27.60
2019-05-02T04:50:18.331Z,29.03
2019-05-02T04:52:48.284Z,30.10
2019-05-02T04:55:28.023Z,31.67
2019-05-02T04:57:50.566Z,26.93
2019-05-02T05:00:22.379Z,26.73
2019-05-02T05:02:53.211Z,25.40
2019-05-02T05:05:25.730Z,26.43
2019-05-02T05:07:55.137Z,26.13
2019-05-02T05:10:24.757Z,28.03
2019-05-02T05:12:54.770Z,24.67
2019-05-02T05:15:37.089Z,26.20
2019-05-02T05:17:57.948Z,26.90
2019-05-02T05:20:28.023Z,27.53
2019-05-02T05:22:58.161Z,25.67
2019-05-02T05:25:37.713Z,25.77
2019-05-02T05:28:08.837Z,25.87
2019-05-02T05:30:45.386Z,26.30
2019-05-02T05:33:10.220Z,31.60
2019-05-02T05:35:43.366Z,24.50
2019-05-02T05:38:11.368Z,24.07
2019-05-02T05:40:40.920Z,26.07
2019-05-02T05:43:14.476Z,25.47
2019-05-02T05:45:50.821Z,27.53
2019-05-02T05:48:13.874Z,26.70
2019-05-02T05:50:43.577Z,26.03
2019-05-02T05:53:17.195Z,26.60
2019-05-02T05:55:47.233Z,26.00
2019-05-02T05:58:18.789Z,26.33
2019-05-02T06:00:53.796Z,26.70
2019-05-02T06:03:19.464Z,27.00
2019-05-02T06:05:49.000Z,25.27
2019-05-02T06:08:19.977Z,26.67
2019-05-02T06:10:49.615Z,24.93
2019-05-02T06:13:19.159Z,25.13
2019-05-02T06:16:01.543Z,24.53
2019-05-02T06:18:20.895Z,25.00
2019-05-02T06:20:50.451Z,24.80
2019-05-02T06:23:20.305Z,24.97
2019-05-02T06:25:49.983Z,24.00
2019-05-02T06:28:19.530Z,25.67
2019-05-02T06:30:49.158Z,24.20
2019-05-02T06:33:18.718Z,25.27
2019-05-02T06:35:51.844Z,24.40
2019-05-02T06:38:21.694Z,25.67
2019-05-02T06:40:51.115Z,25.43
2019-05-02T06:43:20.670Z,24.63
2019-05-02T06:45:50.224Z,25.97
2019-05-02T06:48:19.916Z,25.43
2019-05-02T06:50:49.678Z,25.50
2019-05-02T06:53:19.390Z,24.27
2019-05-02T06:55:48.934Z,24.67
2019-05-02T06:58:18.509Z,24.47
2019-05-02T07:00:57.531Z,24.33
2019-05-02T07:03:19.461Z,24.90
2019-05-02T07:05:49.405Z,26.17
2019-05-02T07:08:19.307Z,26.33
2019-05-02T07:10:49.756Z,24.13
2019-05-02T07:13:19.315Z,24.23
2019-05-02T07:15:57.816Z,24.43
2019-05-02T07:18:32.173Z,22.77
2019-05-02T07:21:02.121Z,23.63
2019-05-02T07:23:31.674Z,23.43
2019-05-02T07:26:01.483Z,23.47
2019-05-02T07:28:31.644Z,24.33
2019-05-02T07:31:01.279Z,22.07
2019-05-02T07:33:32.207Z,23.30
2019-05-02T07:36:02.183Z,24.43
2019-05-02T07:38:31.842Z,24.70
2019-05-02T07:41:01.708Z,25.67
2019-05-02T07:43:31.267Z,24.63
2019-05-02T07:46:01.042Z,24.90
2019-05-02T07:48:30.633Z,27.43
2019-05-02T07:51:00.457Z,27.80
2019-05-02T07:53:30.033Z,27.37
2019-05-02T07:55:59.692Z,26.13
2019-05-02T07:58:29.982Z,26.27
2019-05-02T08:00:59.537Z,28.20
2019-05-02T08:03:33.481Z,28.23
2019-05-02T08:06:02.620Z,28.80
2019-05-02T08:08:32.426Z,29.20
2019-05-02T08:11:03.230Z,29.47
2019-05-02T08:13:33.275Z,27.87
2019-05-02T08:16:02.831Z,32.27
2019-05-02T08:18:32.413Z,29.20
2019-05-02T08:21:02.315Z,29.70
2019-05-02T08:23:32.601Z,28.37
2019-05-02T08:26:02.167Z,26.13
2019-05-02T08:28:42.369Z,26.93
2019-05-02T08:31:13.478Z,27.50
2019-05-02T08:33:43.307Z,28.03
2019-05-02T08:36:13.233Z,27.47
2019-05-02T08:38:42.905Z,28.20
2019-05-02T08:41:12.460Z,24.03
2019-05-02T08:43:44.928Z,24.77
2019-05-02T08:46:14.464Z,24.57
2019-05-02T08:48:44.814Z,24.60
2019-05-02T08:51:14.383Z,24.20
2019-05-02T08:53:43.933Z,24.97
2019-05-02T08:56:16.537Z,25.23
2019-05-02T08:58:45.041Z,23.73
2019-05-02T09:01:16.139Z,23.80
2019-05-02T09:03:55.449Z,22.60
2019-05-02T09:06:22.148Z,23.93
2019-05-02T09:08:51.336Z,24.33
2019-05-02T09:11:19.846Z,23.90
2019-05-02T09:13:49.406Z,23.23
2019-05-02T09:16:23.741Z,26.80
2019-05-02T09:18:53.810Z,26.30
2019-05-02T09:21:22.037Z,24.40
2019-05-02T09:23:51.902Z,24.67
2019-05-02T09:26:33.258Z,24.03
2019-05-02T09:28:56.397Z,26.10
2019-05-02T09:31:24.600Z,24.67
2019-05-02T09:33:55.666Z,24.83
2019-05-02T09:36:25.335Z,23.73
2019-05-02T09:38:57.537Z,24.97
2019-05-02T09:41:26.959Z,26.07
2019-05-02T09:43:57.737Z,23.93
2019-05-02T09:46:27.387Z,25.93
2019-05-02T09:49:02.906Z,24.97
2019-05-02T09:51:29.532Z,24.93
2019-05-02T09:54:02.721Z,24.23
2019-05-02T09:56:32.560Z,23.67
2019-05-02T09:59:23.239Z,24.33
2019-05-02T10:01:36.161Z,23.67
2019-05-02T10:04:06.614Z,23.47
2019-05-02T10:06:36.385Z,22.57
2019-05-02T10:09:11.912Z,21.77
2019-05-02T10:11:41.842Z,22.73
2019-05-02T10:14:13.035Z,23.97
2019-05-02T10:16:42.789Z,22.30
2019-05-02T10:19:13.527Z,23.07
2019-05-02T10:21:46.989Z,22.80
2019-05-02T10:24:14.544Z,21.40
2019-05-02T10:26:44.216Z,22.53
2019-05-02T10:29:13.853Z,21.87
2019-05-02T10:31:43.436Z,22.23
2019-05-02T10:34:17.516Z,22.57
2019-05-02T10:36:45.589Z,22.93
2019-05-02T10:39:15.935Z,23.80
2019-05-02T10:41:45.627Z,23.33
2019-05-02T10:44:15.772Z,23.47
2019-05-02T10:46:52.667Z,22.50
2019-05-02T10:49:23.937Z,24.10
2019-05-02T10:51:55.186Z,23.47
2019-05-02T10:54:27.904Z,21.73
2019-05-02T10:56:56.661Z,21.97
2019-05-02T10:59:26.300Z,21.00
2019-05-02T11:02:02.522Z,20.10
2019-05-02T11:04:34.044Z,21.50
2019-05-02T11:07:04.076Z,20.32
2019-05-02T11:09:33.753Z,19.98
2019-05-02T11:12:04.966Z,22.48
2019-05-02T11:14:36.227Z,22.80
2019-05-02T11:17:08.858Z,23.32
2019-05-02T11:19:46.010Z,21.33
2019-05-02T11:22:15.573Z,21.55
2019-05-02T11:24:45.130Z,21.17
2019-05-02T11:27:14.796Z,19.23
2019-05-02T11:29:44.362Z,20.55
2019-05-02T11:32:14.322Z,20.20
2019-05-02T11:34:43.884Z,21.17
2019-05-02T11:37:13.532Z,20.65
2019-05-02T11:39:50.158Z,18.37
2019-05-02T11:42:17.618Z,19.00
2019-05-02T11:44:46.767Z,20.32
2019-05-02T11:47:17.354Z,21.07
2019-05-02T11:49:53.932Z,20.45
2019-05-02T11:52:19.082Z,20.62
2019-05-02T11:54:48.888Z,30.08
2019-05-02T11:57:22.795Z,20.27
2019-05-02T11:59:51.965Z,21.42
2019-05-02T12:02:29.192Z,21.05
2019-05-02T12:04:58.818Z,21.25
2019-05-02T12:07:28.488Z,20.57
2019-05-02T12:09:58.052Z,20.65
2019-05-02T12:12:32.481Z,20.10
2019-05-02T12:14:58.951Z,20.65
2019-05-02T12:17:30.154Z,21.57
2019-05-02T12:20:01.926Z,20.85
2019-05-02T12:22:32.437Z,18.52
2019-05-02T12:25:03.016Z,19.07
2019-05-02T12:27:32.735Z,20.60
2019-05-02T12:30:03.260Z,20.30
2019-05-02T12:32:33.466Z,20.07
2019-05-02T12:35:03.069Z,20.70
2019-05-02T12:37:33.368Z,18.87
2019-05-02T12:40:03.008Z,20.53
2019-05-02T12:42:33.431Z,20.20
2019-05-02T12:45:04.950Z,19.93
2019-05-02T12:47:34.694Z,21.00
2019-05-02T12:50:05.393Z,20.50
2019-05-02T12:52:35.031Z,19.63
2019-05-02T12:55:06.991Z,20.07
2019-05-02T12:57:37.165Z,19.90
2019-05-02T13:00:12.870Z,20.37
2019-05-02T13:02:52.458Z,19.70
2019-05-02T13:05:22.189Z,19.90
2019-05-02T13:07:55.259Z,20.00
2019-05-02T13:10:25.140Z,21.87
2019-05-02T13:12:55.488Z,17.97
2019-05-02T13:15:25.181Z,20.27
2019-05-02T13:17:54.891Z,17.03
2019-05-02T13:20:29.353Z,16.80
2019-05-02T13:23:03.373Z,18.07
2019-05-02T13:25:36.908Z,17.70
2019-05-02T13:28:04.277Z,18.20
2019-05-02T13:30:42.872Z,16.93
2019-05-02T13:33:12.283Z,17.73
2019-05-02T13:35:43.660Z,15.73
2019-05-02T13:38:14.859Z,16.00
2019-05-02T13:40:44.946Z,15.53
2019-05-02T13:43:14.670Z,16.30
2019-05-02T13:45:49.874Z,16.60
2019-05-02T13:48:19.444Z,16.77
2019-05-02T13:50:49.164Z,16.67
2019-05-02T13:53:18.802Z,17.37
2019-05-02T13:55:53.248Z,16.63
2019-05-02T13:58:28.912Z,17.13
2019-05-02T14:00:54.562Z,16.53
2019-05-02T14:03:24.568Z,17.33
2019-05-02T14:05:54.383Z,17.43
2019-05-02T14:08:36.804Z,18.40
2019-05-02T14:11:05.864Z,17.27
2019-05-02T14:13:35.892Z,18.03
2019-05-02T14:16:05.535Z,19.13
2019-05-02T14:18:35.624Z,19.30
2019-05-02T14:21:05.684Z,18.37
2019-05-02T14:23:35.736Z,18.80
2019-05-02T14:26:05.422Z,19.47
2019-05-02T14:28:36.370Z,18.33
2019-05-02T14:31:06.633Z,19.10
2019-05-02T14:33:37.819Z,18.90
2019-05-02T14:36:07.687Z,19.07
2019-05-02T14:38:37.240Z,19.90
2019-05-02T14:41:12.473Z,19.07
2019-05-02T14:43:53.991Z,17.50
2019-05-02T14:46:34.252Z,17.33
2019-05-02T14:48:57.320Z,19.47
2019-05-02T14:51:27.978Z,16.53
2019-05-02T14:54:03.577Z,15.80
2019-05-02T14:56:37.510Z,17.00
2019-05-02T14:59:09.200Z,15.43
2019-05-02T15:01:38.135Z,16.43
2019-05-02T15:04:08.370Z,22.53
2019-05-02T15:06:42.815Z,23.27
2019-05-02T15:09:11.912Z,25.20
2019-05-02T15:12:02.253Z,26.63
2019-05-02T15:14:33.869Z,28.27
2019-05-02T15:17:04.389Z,28.57
2019-05-02T15:19:34.042Z,28.33
2019-05-02T15:22:03.660Z,29.67
2019-05-02T15:24:37.369Z,27.20
2019-05-02T15:27:12.080Z,26.93
2019-05-02T15:29:36.815Z,28.03
2019-05-02T15:32:13.966Z,27.93
2019-05-02T15:34:48.034Z,27.47
2019-05-02T15:37:22.167Z,27.50
2019-05-02T15:42:22.872Z,28.30
2019-05-02T15:44:52.322Z,30.50
2019-05-02T15:47:22.552Z,30.20
2019-05-02T15:49:52.789Z,29.60
2019-05-02T15:52:27.788Z,29.57
2019-05-02T15:54:59.921Z,31.50
2019-05-02T15:57:27.005Z,32.07
2019-05-02T15:59:56.715Z,31.87
2019-05-02T16:02:27.925Z,32.10
2019-05-02T16:05:02.407Z,31.03
2019-05-02T16:07:28.839Z,29.87
2019-05-02T16:10:01.161Z,31.50
2019-05-02T16:12:32.086Z,29.77
2019-05-02T16:15:02.442Z,31.03
2019-05-02T16:17:33.421Z,31.10
2019-05-02T16:20:10.560Z,30.60
2019-05-02T16:22:38.319Z,36.60
2019-05-02T16:25:08.982Z,34.90
2019-05-02T16:27:48.383Z,31.67
2019-05-02T16:30:22.570Z,29.73
2019-05-02T16:32:54.944Z,31.40
2019-05-02T16:35:26.128Z,31.03
2019-05-02T16:37:56.781Z,31.60
2019-05-02T16:40:29.802Z,30.60
2019-05-02T16:42:59.453Z,30.63
2019-05-02T16:45:29.283Z,30.70
2019-05-02T16:48:03.232Z,26.53
2019-05-02T16:50:36.560Z,29.53
2019-05-02T16:53:03.285Z,12.90
2019-05-02T16:55:32.986Z,11.10
2019-05-02T16:58:06.948Z,11.17
2019-05-02T17:00:37.091Z,12.13
2019-05-02T17:03:06.273Z,13.73
2019-05-02T17:05:39.322Z,14.73
2019-05-02T17:08:20.049Z,16.07
2019-05-02T17:10:53.674Z,17.27
2019-05-02T17:13:22.217Z,16.57
2019-05-02T17:15:52.273Z,18.13
2019-05-02T17:18:22.813Z,18.90
2019-05-02T17:20:56.634Z,20.77
2019-05-02T17:23:23.908Z,20.00
2019-05-02T17:25:53.516Z,19.97
2019-05-02T17:28:23.269Z,21.07
2019-05-02T17:30:52.827Z,20.80
2019-05-02T17:33:22.537Z,20.40
2019-05-02T17:35:54.227Z,18.43
2019-05-02T17:38:28.912Z,18.03
2019-05-02T17:40:59.253Z,19.27
2019-05-02T17:43:26.748Z,19.27
2019-05-02T17:45:56.581Z,19.30
2019-05-02T17:48:26.684Z,20.73
2019-05-02T17:51:02.213Z,18.73
2019-05-02T17:53:33.586Z,19.07
2019-05-02T17:56:03.600Z,17.33
2019-05-02T17:58:34.726Z,15.77
2019-05-02T18:01:06.347Z,15.30
2019-05-02T18:03:35.919Z,15.70
2019-05-02T18:06:07.472Z,17.13
2019-05-02T18:08:37.500Z,15.13
2019-05-02T18:11:07.144Z,15.93
2019-05-02T18:13:36.713Z,15.67
2019-05-02T18:16:07.747Z,15.93
2019-05-02T18:18:45.447Z,16.20
2019-05-02T18:21:12.579Z,15.77
2019-05-02T18:23:44.791Z,16.93
2019-05-02T18:26:14.358Z,18.37
2019-05-02T18:28:48.922Z,18.57
2019-05-02T18:31:15.635Z,17.80
2019-05-02T18:33:45.209Z,17.20
2019-05-02T18:36:17.338Z,16.53
2019-05-02T18:38:46.286Z,16.63
2019-05-02T18:41:15.843Z,17.20
2019-05-02T18:43:45.559Z,17.30
2019-05-02T18:46:15.175Z,15.93
2019-05-02T18:48:46.860Z,16.10
2019-05-02T18:51:18.851Z,14.47
2019-05-02T18:53:47.969Z,14.47
2019-05-02T18:56:17.608Z,14.80
2019-05-02T18:58:47.240Z,14.90
2019-05-02T19:01:18.492Z,14.70
2019-05-02T19:03:52.634Z,15.47
2019-05-02T19:06:21.892Z,15.77
2019-05-02T19:08:55.470Z,16.43
2019-05-02T19:11:26.749Z,16.07
2019-05-02T19:13:56.523Z,17.80
2019-05-02T19:16:28.694Z,17.50
2019-05-02T19:18:57.663Z,17.40
2019-05-02T19:21:32.156Z,19.17
2019-05-02T19:23:58.588Z,18.60
2019-05-02T19:26:30.062Z,19.60
2019-05-02T19:29:08.428Z,20.43
2019-05-02T19:31:44.330Z,21.70
2019-05-02T19:34:11.991Z,20.20
2019-05-02T19:36:43.572Z,23.57
2019-05-02T19:39:14.088Z,23.27
2019-05-02T19:41:45.630Z,22.27
2019-05-02T19:44:21.407Z,22.93
2019-05-02T19:46:48.408Z,24.40
2019-05-02T19:49:19.073Z,25.17
2019-05-02T19:51:50.548Z,24.87
2019-05-02T19:54:21.714Z,26.60
2019-05-02T19:56:54.280Z,26.77
2019-05-02T19:59:29.662Z,26.60
2019-05-02T20:02:02.471Z,26.57
2019-05-02T20:04:32.639Z,26.20
2019-05-02T20:07:02.312Z,27.20
2019-05-02T20:09:32.428Z,26.87
2019-05-02T20:12:07.586Z,28.33
2019-05-02T20:14:33.609Z,28.13
2019-05-02T20:17:04.910Z,28.87
2019-05-02T20:19:36.258Z,30.03
2019-05-02T20:22:13.391Z,28.07
2019-05-02T20:24:55.301Z,28.40
2019-05-02T20:27:23.898Z,28.00
2019-05-02T20:29:53.692Z,29.13
2019-05-02T20:32:23.472Z,27.53
2019-05-02T20:34:53.036Z,29.27
2019-05-02T20:37:22.667Z,29.43
2019-05-02T20:39:52.892Z,27.77
2019-05-02T20:42:22.453Z,24.87
2019-05-02T20:44:52.784Z,25.07
2019-05-02T20:47:26.033Z,24.27
2019-05-02T20:49:55.692Z,24.37
2019-05-02T20:52:55.667Z,22.70
2019-05-02T20:55:32.310Z,21.27
2019-05-02T20:58:02.290Z,19.53
2019-05-02T21:00:33.262Z,18.33
2019-05-02T21:03:11.958Z,15.27
2019-05-02T21:05:42.838Z,13.97
2019-05-02T21:08:32.482Z,15.07
2019-05-02T21:11:04.982Z,13.70
2019-05-02T21:13:36.167Z,13.80
2019-05-02T21:16:06.222Z,13.73
2019-05-02T21:18:35.972Z,12.90
2019-05-02T21:21:05.683Z,12.97
2019-05-02T21:23:43.877Z,11.23
2019-05-02T21:26:06.800Z,11.17
2019-05-02T21:28:37.090Z,10.80
2019-05-02T21:31:06.658Z,10.90
2019-05-02T21:33:40.128Z,12.20
2019-05-02T21:36:11.809Z,12.47
2019-05-02T21:38:45.702Z,11.90
2019-05-02T21:41:22.323Z,9.00
2019-05-02T21:44:02.891Z,8.57
2019-05-02T21:46:32.452Z,8.10
2019-05-02T21:49:04.075Z,6.97
2019-05-02T21:51:51.776Z,6.87
2019-05-02T21:54:35.523Z,6.90
2019-05-02T21:57:06.828Z,5.60
2019-05-02T21:59:36.370Z,5.83
2019-05-02T22:02:08.499Z,5.70
2019-05-02T22:04:38.203Z,5.40
2019-05-02T22:07:07.827Z,4.90
2019-05-02T22:09:37.391Z,4.87
2019-05-02T22:12:07.261Z,4.83
2019-05-02T22:14:36.808Z,4.67
2019-05-02T22:17:06.392Z,3.70
2019-05-02T22:19:36.020Z,4.53
2019-05-02T22:25:53.262Z,3.70
2019-05-02T22:28:22.804Z,4.07
2019-05-02T22:30:54.567Z,3.57
2019-05-02T22:33:24.334Z,3.93
2019-05-02T22:35:54.380Z,3.23
2019-05-02T22:38:34.427Z,3.33
2019-05-02T22:41:04.127Z,2.97
2019-05-02T22:43:34.764Z,3.50
2019-05-02T22:46:06.721Z,3.33
2019-05-02T22:48:36.350Z,3.67
2019-05-02T22:51:05.903Z,3.73
2019-05-02T22:53:35.451Z,3.63
2019-05-02T22:56:05.405Z,4.17
2019-05-02T22:58:34.955Z,4.10
2019-05-02T23:01:06.552Z,3.57
2019-05-02T23:03:36.183Z,3.80
2019-05-02T23:06:06.005Z,3.77
2019-05-02T23:08:36.000Z,4.00
2019-05-02T23:11:05.622Z,4.00
2019-05-02T23:13:35.357Z,3.93
2019-05-02T23:16:05.117Z,3.80
2019-05-02T23:18:34.662Z,4.13
2019-05-02T23:21:04.557Z,3.80
2019-05-02T23:23:34.098Z,4.03
2019-05-02T23:26:05.279Z,3.90
2019-05-02T23:28:39.251Z,4.27
2019-05-02T23:31:08.802Z,4.00
2019-05-02T23:33:56.242Z,4.07
2019-05-02T23:36:27.679Z,3.67
2019-05-02T23:38:57.567Z,3.80
2019-05-02T23:41:29.638Z,4.15
2019-05-02T23:43:59.172Z,4.03
2019-05-02T23:46:28.820Z,4.30
2019-05-02T23:48:58.368Z,4.40
2019-05-02T23:51:28.383Z,4.60
2019-05-02T23:53:59.535Z,4.07
2019-05-02T23:56:29.155Z,4.37
2019-05-02T23:58:58.837Z,4.07
